createdAt,value
2023-02-15T00:09:13.768Z,98464.31
2023-02-15T00:20:41.566Z,98472.25
2023-02-15T00:30:55.860Z,98465.63
2023-02-15T00:41:14.217Z,98453.63
2023-02-15T00:44:41.457Z,98453.72
2023-02-15T00:47:44.306Z,98458.06
2023-02-15T00:54:01.407Z,98454.84
2023-02-15T01:00:10.588Z,98448.81
2023-02-15T01:06:34.061Z,98441.31
2023-02-15T01:13:12.111Z,98432.94
2023-02-15T01:18:12.106Z,98446.38
2023-02-15T01:18:53.461Z,98449.09
2023-02-15T01:25:19.913Z,98450.28
2023-02-15T01:32:04.561Z,98445.13
2023-02-15T01:34:31.583Z,98439.84
2023-02-15T01:36:58.766Z,98444.25
2023-02-15T01:39:25.958Z,98428.06
2023-02-15T01:41:53.165Z,98437.94
2023-02-15T01:44:47.829Z,98441.41
2023-02-15T01:47:23.356Z,98429.56
2023-02-15T01:50:05.619Z,98436.31
2023-02-15T01:53:27.631Z,98434.69
2023-02-15T01:55:56.794Z,98427.00
2023-02-15T01:58:26.502Z,98419.47
2023-02-15T02:00:55.861Z,98432.16
2023-02-15T02:03:42.652Z,98427.91
2023-02-15T02:06:11.605Z,98435.63
2023-02-15T02:08:40.867Z,98435.00
2023-02-15T02:11:12.768Z,98431.38
2023-02-15T02:13:44.715Z,98447.75
2023-02-15T02:16:33.672Z,98432.38
2023-02-15T02:19:22.471Z,98443.41
2023-02-15T02:22:02.065Z,98442.63
2023-02-15T02:24:53.989Z,98452.09
2023-02-15T02:27:41.430Z,98441.88
2023-02-15T02:30:39.702Z,98449.66
2023-02-15T02:33:21.537Z,98443.53
2023-02-15T02:35:57.698Z,98439.31
2023-02-15T02:38:27.634Z,98447.00
2023-02-15T02:41:29.651Z,98451.13
2023-02-15T02:44:14.200Z,98436.75
2023-02-15T02:46:52.246Z,98437.69
2023-02-15T02:49:39.754Z,98452.19
2023-02-15T02:52:26.680Z,98436.00
2023-02-15T02:54:55.155Z,98434.34
2023-02-15T02:57:25.246Z,98429.19
2023-02-15T02:59:54.401Z,98421.63
2023-02-15T03:02:31.686Z,98445.47
2023-02-15T03:05:08.046Z,98428.31
2023-02-15T03:07:37.241Z,98440.31
2023-02-15T03:10:07.007Z,98434.34
2023-02-15T03:12:37.680Z,98437.13
2023-02-15T03:15:16.479Z,98428.50
2023-02-15T03:17:46.591Z,98448.13
2023-02-15T03:20:36.903Z,98437.81
2023-02-15T03:23:18.800Z,98432.81
2023-02-15T03:25:50.755Z,98450.66
2023-02-15T03:28:43.775Z,98435.53
2023-02-15T03:31:14.712Z,98456.06
2023-02-15T03:33:51.022Z,98449.31
2023-02-15T03:36:20.226Z,98465.44
2023-02-15T03:39:16.531Z,98476.63
2023-02-15T03:42:09.815Z,98473.22
2023-02-15T03:45:06.447Z,98479.25
2023-02-15T03:47:37.609Z,98470.63
2023-02-15T03:50:29.837Z,98480.94
2023-02-15T03:52:59.090Z,98473.50
2023-02-15T03:55:26.585Z,98480.22
2023-02-15T03:58:12.420Z,98488.72
2023-02-15T04:01:06.399Z,98497.38
2023-02-15T04:03:35.865Z,98492.13
2023-02-15T04:06:04.159Z,98505.19
2023-02-15T04:08:49.592Z,98495.69
2023-02-15T04:11:16.910Z,98502.63
2023-02-15T04:13:44.049Z,98497.56
2023-02-15T04:16:11.907Z,98503.59
2023-02-15T04:19:00.626Z,98504.50
2023-02-15T04:21:49.077Z,98508.94
2023-02-15T04:24:34.784Z,98520.19
2023-02-15T04:27:02.547Z,98517.66
2023-02-15T04:29:29.382Z,98513.31
2023-02-15T04:31:59.226Z,98503.09
2023-02-15T04:34:26.928Z,98508.34
2023-02-15T04:36:53.952Z,98503.31
2023-02-15T04:39:21.063Z,98516.69
2023-02-15T04:41:48.898Z,98527.13
2023-02-15T04:44:16.005Z,98515.00
2023-02-15T04:46:46.132Z,98520.31
2023-02-15T04:49:12.999Z,98521.16
2023-02-15T04:51:44.190Z,98527.06
2023-02-15T04:54:11.006Z,98492.84
2023-02-15T04:56:39.514Z,98525.41
2023-02-15T04:59:06.995Z,98510.88
2023-02-15T05:01:48.362Z,98532.16
2023-02-15T05:07:52.218Z,98529.69
2023-02-15T05:10:19.727Z,98539.00
2023-02-15T05:12:46.879Z,98525.34
2023-02-15T05:15:51.441Z,98532.84
2023-02-15T05:18:20.152Z,98518.47
2023-02-15T05:20:47.191Z,98537.34
2023-02-15T05:23:14.780Z,98557.03
2023-02-15T05:26:00.905Z,98557.88
2023-02-15T05:28:29.296Z,98565.56
2023-02-15T05:31:02.584Z,98566.41
2023-02-15T05:33:30.097Z,98568.22
2023-02-15T05:35:57.183Z,98558.81
2023-02-15T05:38:24.426Z,98567.47
2023-02-15T05:40:55.258Z,98580.09
2023-02-15T05:43:22.959Z,98547.72
2023-02-15T05:45:52.524Z,98575.81
2023-02-15T05:48:21.902Z,98581.06
2023-02-15T05:51:01.884Z,98580.13
2023-02-15T05:53:30.827Z,98594.63
2023-02-15T05:56:02.082Z,98596.31
2023-02-15T05:58:32.365Z,98595.41
2023-02-15T06:00:59.630Z,98585.13
2023-02-15T06:03:27.226Z,98590.94
2023-02-15T06:05:54.749Z,98590.75
2023-02-15T06:08:21.877Z,98605.91
2023-02-15T06:10:48.955Z,98585.22
2023-02-15T06:13:15.948Z,98599.50
2023-02-15T06:15:42.987Z,98599.28
2023-02-15T06:18:09.773Z,98621.41
2023-02-15T06:20:36.842Z,98604.16
2023-02-15T06:23:04.013Z,98602.22
2023-02-15T06:25:30.902Z,98598.75
2023-02-15T06:27:57.791Z,98596.91
2023-02-15T06:30:25.059Z,98603.56
2023-02-15T06:32:52.425Z,98618.69
2023-02-15T06:35:19.189Z,98590.38
2023-02-15T06:37:49.687Z,98614.66
2023-02-15T06:40:17.118Z,98583.88
2023-02-15T06:42:44.335Z,98607.78
2023-02-15T06:45:11.929Z,98586.53
2023-02-15T06:47:39.124Z,98594.50
2023-02-15T06:50:07.304Z,98594.16
2023-02-15T06:52:34.753Z,98607.38
2023-02-15T06:55:01.597Z,98606.28
2023-02-15T06:57:28.396Z,98599.94
2023-02-15T06:59:55.538Z,98605.56
2023-02-15T07:02:22.344Z,98588.28
2023-02-15T07:04:49.324Z,98598.97
2023-02-15T07:07:16.524Z,98601.34
2023-02-15T07:09:43.447Z,98589.22
2023-02-15T07:12:29.957Z,98584.94
2023-02-15T07:14:57.137Z,98576.41
2023-02-15T07:17:39.021Z,98595.06
2023-02-15T07:20:09.039Z,98613.72
2023-02-15T07:22:37.668Z,98604.34
2023-02-15T07:25:07.352Z,98585.44
2023-02-15T07:27:34.580Z,98597.91
2023-02-15T07:30:02.399Z,98590.69
2023-02-15T07:32:30.907Z,98593.22
2023-02-15T07:34:58.386Z,98585.50
2023-02-15T07:37:26.025Z,98585.91
2023-02-15T07:39:52.777Z,98578.38
2023-02-15T07:42:21.013Z,98586.53
2023-02-15T07:44:48.088Z,98589.41
2023-02-15T07:47:15.195Z,98573.69
2023-02-15T07:49:42.077Z,98570.09
2023-02-15T07:52:11.773Z,98569.69
2023-02-15T07:54:38.531Z,98585.16
2023-02-15T07:57:05.643Z,98587.56
2023-02-15T07:59:32.524Z,98573.94
2023-02-15T08:01:59.654Z,98588.84
2023-02-15T08:04:26.450Z,98598.66
2023-02-15T08:06:55.525Z,98597.94
2023-02-15T08:09:22.949Z,98588.97
2023-02-15T08:11:50.491Z,98599.03
2023-02-15T08:14:20.203Z,98585.41
2023-02-15T08:16:50.202Z,98594.25
2023-02-15T08:19:25.925Z,98588.66
2023-02-15T08:21:54.645Z,98595.16
2023-02-15T08:24:23.323Z,98588.50
2023-02-15T08:26:51.321Z,98594.25
2023-02-15T08:29:19.615Z,98596.66
2023-02-15T08:31:47.263Z,98584.38
2023-02-15T08:34:17.248Z,98589.22
2023-02-15T08:36:46.220Z,98581.91
2023-02-15T08:39:13.570Z,98587.00
2023-02-15T08:41:43.653Z,98580.34
2023-02-15T08:44:12.187Z,98585.09
2023-02-15T08:46:42.611Z,98589.06
2023-02-15T08:49:10.964Z,98587.25
2023-02-15T08:51:39.833Z,98589.59
2023-02-15T08:54:10.709Z,98573.53
2023-02-15T08:56:40.433Z,98591.03
2023-02-15T08:59:09.241Z,98578.72
2023-02-15T09:01:36.460Z,98590.38
2023-02-15T09:04:07.474Z,98594.41
2023-02-15T09:06:34.323Z,98588.94
2023-02-15T09:09:01.230Z,98594.94
2023-02-15T09:11:31.943Z,98594.44
2023-02-15T09:14:10.845Z,98589.66
2023-02-15T09:16:39.455Z,98592.47
2023-02-15T09:19:07.197Z,98589.56
2023-02-15T09:21:39.082Z,98586.91
2023-02-15T09:24:09.029Z,98594.38
2023-02-15T09:26:38.492Z,98594.38
2023-02-15T09:29:05.316Z,98592.47
2023-02-15T09:31:35.185Z,98591.84
2023-02-15T09:34:02.814Z,98587.94
2023-02-15T09:36:35.322Z,98582.94
2023-02-15T09:39:14.831Z,98585.03
2023-02-15T09:41:54.812Z,98584.50
2023-02-15T09:44:49.018Z,98580.88
2023-02-15T09:47:27.768Z,98579.56
2023-02-15T09:50:06.559Z,98582.88
2023-02-15T09:53:11.043Z,98574.81
2023-02-15T09:56:10.015Z,98577.47
2023-02-15T09:58:48.467Z,98573.53
2023-02-15T10:01:36.548Z,98568.47
2023-02-15T10:04:25.041Z,98569.88
2023-02-15T10:07:12.906Z,98555.84
2023-02-15T10:10:07.317Z,98544.50
2023-02-15T10:12:47.521Z,98549.00
2023-02-15T10:15:26.488Z,98557.03
2023-02-15T10:18:00.765Z,98543.22
2023-02-15T10:20:48.742Z,98549.94
2023-02-15T10:23:39.758Z,98546.75
2023-02-15T10:26:28.149Z,98537.03
2023-02-15T10:29:01.888Z,98537.25
2023-02-15T10:31:49.699Z,98530.78
2023-02-15T10:34:36.970Z,98533.03
2023-02-15T10:37:32.005Z,98527.56
2023-02-15T10:40:18.983Z,98528.81
2023-02-15T10:43:15.724Z,98513.66
2023-02-15T10:46:05.390Z,98510.88
2023-02-15T10:48:44.493Z,98507.34
2023-02-15T10:51:33.017Z,98511.59
2023-02-15T10:54:32.129Z,98514.81
2023-02-15T10:57:13.915Z,98500.19
2023-02-15T11:00:13.016Z,98505.19
2023-02-15T11:02:48.885Z,98510.41
2023-02-15T12:13:45.200Z,98463.88
2023-02-15T12:16:14.497Z,98449.72
2023-02-15T12:22:45.617Z,98449.97
2023-02-15T12:26:08.139Z,98454.84
2023-02-15T12:28:41.056Z,98460.09
2023-02-15T12:31:31.893Z,98442.03
2023-02-15T12:34:20.459Z,98443.78
2023-02-15T12:36:59.727Z,98448.09
2023-02-15T12:40:03.650Z,98446.84
2023-02-15T12:43:14.061Z,98445.31
2023-02-15T12:45:48.588Z,98443.03
2023-02-15T12:49:10.492Z,98440.81
2023-02-15T12:52:02.301Z,98435.19
2023-02-15T12:55:45.417Z,98432.97
2023-02-15T13:07:46.790Z,98415.00
2023-02-15T13:45:12.370Z,98411.00
2023-02-15T13:48:46.988Z,98413.97
2023-02-15T13:51:59.553Z,98409.91
2023-02-15T13:55:16.953Z,98410.94
2023-02-15T13:58:41.008Z,98412.69
2023-02-15T14:05:41.406Z,98408.41
2023-02-15T14:09:08.780Z,98415.31
2023-02-15T14:27:31.393Z,98417.53
2023-02-15T14:37:23.317Z,98412.78
2023-02-15T14:54:50.977Z,98423.34
2023-02-15T14:58:18.470Z,98431.13
2023-02-15T14:59:55.024Z,98411.47
2023-02-15T15:01:12.755Z,98425.91
2023-02-15T15:30:54.395Z,98434.25
2023-02-15T15:34:05.334Z,98437.50
2023-02-15T15:37:12.142Z,98438.81
2023-02-15T15:40:24.421Z,98441.06
2023-02-15T15:46:57.076Z,98451.59
2023-02-15T15:53:08.336Z,98448.88
2023-02-15T15:56:00.941Z,98444.41
2023-02-15T15:59:05.622Z,98447.56
2023-02-15T16:02:13.411Z,98450.59
2023-02-15T16:05:27.231Z,98452.66
2023-02-15T16:53:48.329Z,98497.22
2023-02-15T17:12:01.613Z,98493.63
2023-02-15T17:15:15.830Z,98519.81
2023-02-15T20:28:14.108Z,98581.22
2023-02-15T20:58:57.524Z,98565.63
2023-02-15T21:07:53.114Z,98557.94
2023-02-15T21:10:35.685Z,98570.78
2023-02-15T21:13:17.913Z,98568.25
2023-02-15T21:19:46.992Z,98560.63
2023-02-15T21:22:38.658Z,98562.41
2023-02-15T21:25:57.330Z,98560.69
2023-02-15T21:31:29.332Z,98560.03
2023-02-15T21:39:36.263Z,98561.09
2023-02-15T21:42:34.560Z,98555.09
2023-02-15T21:45:33.692Z,98559.47
2023-02-15T21:48:39.925Z,98556.03
2023-02-15T21:51:39.475Z,98558.56
2023-02-15T21:54:28.263Z,98561.19
2023-02-15T21:57:38.927Z,98562.88
2023-02-15T22:03:23.182Z,98564.63
2023-02-15T22:05:57.427Z,98567.22
2023-02-15T22:08:51.503Z,98568.09
2023-02-15T22:11:59.884Z,98563.97
2023-02-15T22:15:57.861Z,98560.47
2023-02-15T22:21:47.197Z,98568.44
2023-02-15T22:24:32.342Z,98560.91
2023-02-15T22:27:06.667Z,98555.69
2023-02-15T22:29:36.743Z,98558.22
2023-02-15T22:32:38.999Z,98559.94
2023-02-15T22:35:24.868Z,98565.22
2023-02-15T22:37:51.876Z,98568.59
2023-02-15T22:40:26.715Z,98563.38
2023-02-15T22:43:25.935Z,98569.47
2023-02-15T22:46:51.484Z,98554.84
2023-02-15T22:49:23.833Z,98565.16
2023-02-15T22:52:08.116Z,98566.16
2023-02-15T22:54:52.345Z,98567.88
2023-02-15T22:58:00.802Z,98558.47
2023-02-15T23:00:43.896Z,98554.19
2023-02-15T23:03:43.995Z,98556.81
2023-02-15T23:06:36.829Z,98561.97
2023-02-15T23:09:22.010Z,98560.34
2023-02-15T23:15:46.672Z,98569.00
2023-02-15T23:18:50.564Z,98565.63
2023-02-15T23:21:51.531Z,98563.94
2023-02-15T23:24:39.929Z,98564.00
2023-02-15T23:27:50.504Z,98571.72
2023-02-15T23:30:23.100Z,98564.84
2023-02-15T23:39:59.252Z,98572.88
2023-02-15T23:42:36.530Z,98568.56
2023-02-15T23:45:28.940Z,98576.25
2023-02-15T23:48:22.899Z,98575.44
2023-02-15T23:59:49.764Z,98572.91
